x

Bodega Bay - 48nm Nnw Of San Francisco, Ca (46013) Wave Buoy

7:50pm - Sun 24th Jul 2016 All times are PDT. -7 hours from GMT.

  • Sig Wave height 8.2ft
  • Peak Period 8s
  • Average Period 6s
  • Wind
    25mph, 31mph gusts
  • Sea Temp 49°f
  • Air Temp 53°f
  • Sea Pressure 1010.6mb
  • Bodega Bay - 48nm Nnw Of San Francisco, Ca
  • Bodega Bay - 48nm Nnw Of San Francisco, Ca

More Historic Weather Station data

Upgrade to MSW Pro to gain access to the past 30 days of data for over 8000 Wavebouys and Weather Stations around the globe.

Join Pro

Comparision Forecast

View Surf forecast
   
Sun 07/24 7:50pm 8ft 8s 6s 25 31 mph 1010.6mb 49f 53f
6:50pm 8ft 9s 6s 25 29 mph 1010.6mb 49f 53f
5:50pm 9ft 8s 6s 25 29 mph 1011.1mb 49f 53f
4:50pm 8.5ft 8s 6s 25 29 mph 1011mb 49f 53f
3:50pm 7.5ft 8s 6s 25 29 mph 1011.4mb 49f 52f
2:50pm 7ft 9s 6s 25 29 mph 1011.7mb 49f 52f
1:50pm 7.5ft 9s 6s 22 29 mph 1011.9mb 49f 51f
12:50pm 8ft 9s 6s 22 27 mph 1012.2mb 50f 51f
11:50am 8.5ft 9s 6s 22 27 mph 1011.8mb 50f 51f
10:50am 8ft 8s 6s 22 27 mph 1011.8mb 50f 51f
9:50am 8ft 8s 6s 27 31 mph 1011.6mb 50f 51f
8:50am 8ft 8s 6s 25 29 mph 1011.6mb 50f 51f
7:50am 8ft 9s 6s 22 27 mph 1011.3mb 50f 50f
6:50am 8.5ft 8s 6s 25 29 mph 1010.7mb 50f 51f
5:50am 8ft 8s 6s 25 29 mph 1010mb 50f 52f
4:50am 8.5ft 9s 6s 22 25 mph 1009.7mb 50f 52f
3:50am 9ft 8s 6s 22 27 mph 1009.4mb 50f 52f
2:50am 9ft 8s 6s 22 27 mph 1009.5mb 50f 53f
1:50am 9.5ft 9s 6s 25 29 mph 1009.6mb 50f 53f
12:50am 9ft 9s 6s 25 31 mph 1009.9mb 50f 53f
Sat 07/23 11:50pm 9ft 9s 6s 25 31 mph 1010.1mb 50f 53f
10:50pm 9ft 9s 6s 27 31 mph 1010.5mb 50f 53f
9:50pm 9ft 8s 6s 27 34 mph 1010.4mb 50f 54f
8:50pm 9ft 8s 6s 29 34 mph 1010.3mb 50f 54f
7:50pm 9ft 8s 6s 29 40 mph 1010.3mb 51f 55f
6:50pm 9ft 8s 6s 34 38 mph 1010.3mb 50f 55f
5:50pm 9ft 8s 6s 31 38 mph 1011.3mb 50f 55f
4:50pm 9.5ft 8s 6s 27 34 mph 1012.3mb 51f 54f
3:50pm 9.5ft 8s 6s 34 38 mph 1012.2mb 51f 54f
2:50pm 9ft 8s 6s 29 36 mph 1013.1mb 51f 54f
1:50pm 9ft 8s 6s 25 29 mph 1014.3mb 51f 53f
12:50pm 8ft 8s 6s 25 31 mph 1015.1mb 51f 52f
11:50am 8ft 8s 6s 22 29 mph 1015.3mb 51f 51f
10:50am 8ft 8s 6s 20 25 mph 1015.7mb 51f 52f
9:50am 8ft 8s 6s 20 27 mph 1015.8mb 51f 51f
8:50am 7ft 8s 6s 22 29 mph 1015.5mb 51f 51f
7:50am 7ft 7s 6s 25 29 mph 1015.2mb 51f 52f
6:50am 7.5ft 8s 6s 25 29 mph 1014.7mb 51f 53f
5:50am 7.5ft 8s 6s 25 29 mph 1014.4mb 51f 53f
4:50am 7ft 6s 5s 22 29 mph 1014mb 51f 53f
3:50am 7ft 8s 5s 25 29 mph 1014mb 51f 53f
2:50am 7ft 8s 6s 25 29 mph 1014.3mb 52f 54f
1:50am 7ft 8s 6s 25 29 mph 1014.7mb 52f 54f
12:50am 7ft 8s 5s 27 31 mph 1015.3mb 52f 54f
Fri 07/22 11:50pm 6ft 8s 5s 22 27 mph 1016mb 52f 54f
10:50pm 6ft 7s 5s 25 29 mph 1016.6mb 53f 55f
9:50pm 6.5ft 8s 5s 22 27 mph 1016.6mb 53f 55f
8:50pm 7ft 6s 5s 25 29 mph 1016.2mb 53f 56f
7:50pm 7ft 6s 5s 29 36 mph 1015.7mb 53f 56f
6:50pm 7ft 6s 5s 27 31 mph 1016.7mb 53f 56f
5:50pm 7ft 6s 5s 27 31 mph 1017.1mb 53f 56f
4:50pm 6ft 6s 5s 27 31 mph 1017.8mb 53f 56f
3:50pm 5.5ft 6s 5s 22 27 mph 1018.6mb 53f 55f
2:50pm 5ft 6s 5s 20 22 mph 1019.3mb 53f 55f
1:50pm 4.5ft 7s 5s 16 18 mph 1020.3mb 53f 54f
12:50pm 4.5ft 6s 5s 11 13 mph 1020.6mb 53f 54f
11:50am 5ft 6s 5s 9 11 mph 1020.7mb 53f 53f
10:50am 4.5ft 6s 5s 13 18 mph 1020.4mb 53f 52f
9:50am 4.5ft 8s 5s 13 18 mph 1020.1mb 53f 51f
8:50am 5ft 6s 5s 18 22 mph 1019.4mb 53f 52f
7:50am 4.5ft 6s 5s 20 22 mph 1019.2mb 52f 52f
6:50am 4.5ft 8s 5s 18 20 mph 1018.7mb 52f 53f
4:50am 4.5ft 5s 5s 18 22 mph 1018mb 53f 53f
3:50am 4.5ft 8s 5s 22 27 mph 1018mb 53f 54f
2:50am 4.5ft 5s 4s 22 27 mph 1018mb 53f 55f
1:50am 5ft 5s 5s 22 27 mph 1018mb 53f 55f
12:50am 5ft 5s 5s 25 29 mph 1018mb 53f 55f
Thu 07/21 11:50pm 5.5ft 5s 5s 27 31 mph 1018.2mb 53f 56f
10:50pm 6ft 5s 5s 25 29 mph 1018.5mb 53f 56f
9:50pm 6ft 5s 5s 27 34 mph 1018.2mb 53f 56f
8:50pm 5ft 5s 5s 27 31 mph 1017.9mb 53f 56f
7:50pm 4.5ft 5s 5s 25 29 mph 1018.3mb 53f 56f
6:50pm 4.5ft 16s 5s 25 29 mph 1018.3mb 53f 56f
5:50pm 3.5ft 16s 5s 22 27 mph 1018.7mb 54f 56f
4:50pm 3.5ft 15s 5s 18 22 mph 1019.3mb 53f 56f
3:50pm 3.5ft 15s 5s 16 18 mph 1019.5mb 53f 56f
2:50pm 3.5ft 8s 5s 16 20 mph 1019.5mb 53f 55f
1:50pm 3.5ft 15s 5s 16 18 mph 1019.6mb 53f 55f
12:50pm 3.5ft 8s 5s 16 20 mph 1019.2mb 53f 54f
11:50am 3.5ft 15s 5s 18 20 mph 1018.9mb 53f 53f
10:50am 3.5ft 14s 6s 13 16 mph 1019.1mb 53f 53f
9:50am 3.5ft 15s 6s 13 16 mph 1018.6mb 52f 53f
8:50am 3.5ft 15s 5s 11 13 mph 1018.5mb 52f 54f
7:50am 3.5ft 15s 5s 11 13 mph 1018mb 52f 54f
6:50am 3.5ft 15s 5s 13 16 mph 1017.8mb 52f 54f
5:50am 4ft 8s 5s 18 20 mph 1017.3mb 52f 54f
4:50am 4ft 4s 4s 20 25 mph 1017mb 52f 54f